Latest Weather Observations for McCluer Island

IDD60801

Issued at 10:01 pm CST Thursday 3 September 2015 (issued every 30 minutes, with the page automatically refreshed every 10 minutes)

About weather observations | Map of weather stations | Latest weather observations for NT | Other Formats
Station Details ID: 014274 Name: MCCLUER ISLAND Lat: -11.05 Lon: 132.98 Height: 1.4 m
Data from the previous 72 hours. | See also: Recent months at McCluer Island
Date/Time
CST
Temp
°C
App
Temp
°C
Dew
Point
Rel
Hum
%
Delta-T
°C
Wind Press
QNH
hPa
Press
MSL
hPa
Rain
since 9 am
mm
Dir
 
Spd
km/h
Gust
km/h
Spd
kts
Gust
kts
03/10:00pm 26.0 27.7 22.3 80 2.5 NE 17 22 9 12 1015.6 - 0.0
03/09:30pm 26.3 27.4 23.0 82 2.2 NE 22 28 12 15 1015.4 - 0.0
03/09:00pm 26.2 26.9 22.9 82 2.2 NE 24 28 13 15 1015.4 1015.4 0.0
03/08:30pm 26.0 26.3 22.3 80 2.5 NE 24 28 13 15 1015.4 - 0.0
03/08:00pm 26.1 26.8 22.2 79 2.6 NE 22 24 12 13 1015.2 - 0.0
03/07:30pm 26.1 27.2 22.0 78 2.7 ENE 19 20 10 11 1014.9 - 0.0
03/07:00pm 26.3 27.5 22.2 78 2.8 E 19 22 10 12 1014.6 - 0.0
03/06:00pm 26.9 28.7 21.9 74 3.3 E 15 19 8 10 1014.2 1014.2 0.0
03/05:30pm 27.2 28.9 21.7 72 3.7 E 15 19 8 10 1014.0 - 0.0
03/05:00pm 27.7 29.4 21.7 70 4.0 E 15 17 8 9 1013.9 - 0.0
03/04:30pm 27.6 29.4 21.9 71 3.8 E 15 20 8 11 1013.7 - 0.0
03/04:00pm 27.9 30.4 22.4 72 3.7 E 13 20 7 11 1013.8 - 0.0
03/03:30pm 27.5 29.7 21.1 68 4.2 ENE 11 17 6 9 1014.0 - 0.0
03/03:00pm 28.0 30.3 21.3 67 4.5 E 11 15 6 8 1014.2 1014.2 0.0
03/02:30pm 28.4 31.6 21.7 67 4.5 E 7 13 4 7 1014.4 - 0.0
03/02:00pm 28.7 31.3 22.0 67 4.5 SW 11 17 6 9 1014.4 - 0.0
03/01:30pm 28.4 30.9 21.7 67 4.5 SW 11 13 6 7 1014.8 - 0.0
03/01:00pm 29.3 33.9 21.8 64 5.0 CALM 0 6 0 3 1015.2 - 0.0
03/12:30pm 27.8 30.9 21.1 67 4.4 ENE 6 7 3 4 1015.6 - 0.0
03/12:00pm 28.1 31.7 22.1 70 4.0 E 6 9 3 5 1015.9 1015.9 0.0
03/11:30am 28.1 31.5 21.6 68 4.3 ENE 6 9 3 5 1016.5 - 0.0
03/11:00am 28.0 31.1 21.5 67 4.3 E 7 11 4 6 1017.1 - 0.0
03/10:30am 28.2 31.6 22.0 69 4.2 E 7 9 4 5 1017.3 - 0.0
03/10:00am 28.2 32.0 21.7 68 4.4 E 4 7 2 4 1017.2 - 0.0
03/09:30am 27.6 31.1 21.9 71 3.8 E 6 7 3 4 1017.1 - 0.0
03/09:00am 27.2 31.4 21.0 69 4.1 CALM 0 0 0 0 1016.9 1016.9 0.0
03/08:30am 26.9 31.3 21.4 72 3.7 CALM 0 0 0 0 1016.9 - 0.0
03/08:00am 26.4 31.1 22.0 77 2.9 CALM 0 7 0 4 1016.7 - 0.0
03/07:30am 24.8 28.8 22.1 85 1.8 E 4 6 2 3 1016.3 - 0.0
03/07:00am 23.6 26.7 21.1 86 1.6 SSE 6 7 3 4 1016.0 - 0.0
03/06:30am 23.5 26.9 21.0 86 1.6 ESE 4 6 2 3 1015.6 - 0.0
03/06:00am 23.3 27.5 21.0 87 1.5 CALM 0 7 0 4 1015.2 1015.2 0.0
03/05:30am 23.7 27.8 20.8 84 1.9 CALM 0 0 0 0 1014.8 - 0.0
03/05:00am 24.0 28.3 21.1 84 1.9 CALM 0 0 0 0 1014.5 - 0.0
03/04:30am 23.9 28.2 21.2 85 1.8 CALM 0 0 0 0 1014.6 - 0.0
03/04:00am 24.0 27.4 20.9 83 2.0 ESE 4 7 2 4 1014.6 - 0.0
03/03:30am 24.4 28.1 20.7 80 2.4 SE 2 7 1 4 1014.5 - 0.0
03/03:00am 25.3 28.3 21.2 78 2.7 E 7 11 4 6 1014.5 1014.5 0.0
03/02:30am 25.6 27.4 21.9 80 2.5 ENE 15 17 8 9 1014.4 - 0.0
03/02:00am 25.7 27.1 21.8 79 2.6 NE 17 20 9 11 1014.6 - 0.0
03/01:30am 25.8 27.5 22.3 81 2.3 NE 17 20 9 11 1014.6 - 0.0
03/01:00am 25.8 27.2 21.9 79 2.6 NE 17 20 9 11 1014.7 - 0.0
03/12:30am 26.0 27.2 22.1 79 2.6 NE 19 20 10 11 1014.8 - 0.0
03/12:00am 25.9 27.0 22.0 79 2.6 NE 19 20 10 11 1015.0 1015.0 0.0
 
Date/Time
CST
Temp
°C
App
Temp
°C
Dew
Point
Rel
Hum
%
Delta-T
°C
Wind Press
QNH
hPa
Press
MSL
hPa
Rain
since 9 am
mm
Dir
 
Spd
km/h
Gust
km/h
Spd
kts
Gust
kts
02/11:30pm 26.1 27.5 22.6 81 2.4 NNE 19 22 10 12 1014.9 - 0.0
02/11:00pm 26.2 28.0 22.5 80 2.5 NE 17 20 9 11 1014.9 - 0.0
02/10:30pm 26.0 27.2 22.1 79 2.6 NNE 19 22 10 12 1014.7 - 0.0
02/10:00pm 26.1 27.7 22.2 79 2.6 NE 17 20 9 11 1014.7 - 0.0
02/09:30pm 26.0 27.7 21.7 77 2.9 NNE 15 19 8 10 1014.4 - 0.0
02/09:00pm 25.9 27.4 22.0 79 2.6 NE 17 20 9 11 1014.1 1014.1 0.0
02/08:30pm 26.0 28.6 21.9 78 2.7 NE 11 15 6 8 1014.0 - 0.0
02/08:00pm 26.1 27.1 21.7 77 2.9 NE 19 22 10 12 1013.4 - 0.0
02/07:30pm 26.1 26.6 22.0 78 2.7 NE 22 24 12 13 1013.0 - 0.0
02/07:00pm 26.1 26.7 21.3 75 3.2 NE 20 24 11 13 1012.8 - 0.0
02/06:30pm 26.3 26.9 21.3 74 3.3 NE 20 22 11 12 1012.6 - 0.0
02/06:00pm 26.6 27.5 21.6 74 3.3 NE 19 20 10 11 1012.4 1012.4 0.0
02/05:30pm 26.8 27.3 20.9 70 3.9 ENE 19 20 10 11 1012.5 - 0.0
02/05:00pm 27.2 27.7 20.8 68 4.2 ENE 19 20 10 11 1012.5 - 0.0
02/04:30pm 27.5 28.4 21.5 70 4.0 ENE 19 22 10 12 1012.4 - 0.0
02/04:00pm 27.5 28.7 20.6 66 4.5 ENE 15 17 8 9 1012.4 - 0.0
02/03:30pm 27.6 29.3 20.9 67 4.4 NE 13 17 7 9 1012.6 - 0.0
02/03:00pm 27.4 29.1 21.0 68 4.2 NE 13 17 7 9 1012.8 1012.8 0.0
02/02:30pm 27.8 30.0 21.1 67 4.4 ENE 11 13 6 7 1013.1 - 0.0
02/02:00pm 27.9 30.6 21.4 67 4.3 NE 9 13 5 7 1013.6 - 0.0
02/01:30pm 27.8 30.3 21.1 67 4.4 NNE 9 11 5 6 1014.2 - 0.0
02/01:00pm 28.1 31.2 21.4 67 4.5 ENE 7 11 4 6 1014.8 - 0.0
02/12:30pm 27.7 30.4 21.3 68 4.3 ENE 9 9 5 5 1015.3 - 0.0
02/12:00pm 28.3 31.5 21.6 67 4.5 N 7 11 4 6 1015.8 1015.8 0.0
02/11:30am 27.9 31.1 21.2 67 4.5 NE 6 7 3 4 1016.2 - 0.0
02/11:00am 27.7 30.4 21.3 68 4.3 ENE 9 11 5 6 1016.4 - 0.0
02/10:30am 28.2 31.6 22.0 69 4.2 E 7 9 4 5 1016.7 - 0.0
02/10:00am 28.6 31.5 21.1 64 5.0 SW 7 9 4 5 1016.7 - 0.0
02/09:30am 27.6 29.8 20.4 65 4.7 SW 9 11 5 6 1016.6 - 0.0
02/09:00am 27.3 29.7 20.1 64 4.7 SW 7 9 4 5 1016.3 1016.3 0.0
02/08:30am 26.7 28.9 20.5 69 4.1 SW 9 11 5 6 1016.0 - 0.0
02/08:00am 26.2 28.2 20.7 71 3.6 SW 11 15 6 8 1015.5 - 0.0
02/07:30am 25.6 27.6 21.5 78 2.7 SW 13 17 7 9 1015.2 - 0.0
02/07:00am 25.1 27.1 21.6 81 2.3 SW 13 15 7 8 1015.0 - 0.0
02/06:30am 25.0 27.0 21.5 81 2.3 SW 13 17 7 9 1014.5 - 0.0
02/06:00am 25.0 27.2 21.1 79 2.6 WSW 11 15 6 8 1014.2 1014.2 0.0
02/05:30am 24.7 27.7 21.2 81 2.3 SW 7 11 4 6 1013.9 - 0.0
02/05:00am 24.7 27.1 20.8 79 2.6 SW 9 11 5 6 1013.7 - 0.0
02/04:30am 24.9 27.8 21.0 79 2.6 WSW 7 9 4 5 1013.8 - 0.0
02/04:00am 24.9 27.7 20.8 78 2.7 W 7 9 4 5 1013.8 - 0.0
02/03:30am 25.0 27.8 20.9 78 2.7 W 7 9 4 5 1013.8 - 0.0
02/03:00am 25.1 27.7 21.2 79 2.6 W 9 11 5 6 1013.9 1013.9 0.0
02/02:30am 25.0 27.2 21.1 79 2.6 NW 11 13 6 7 1013.9 - 0.0
02/02:00am 24.9 27.5 21.2 80 2.4 NNW 9 13 5 7 1013.8 - 0.0
02/01:30am 25.3 27.5 21.2 78 2.7 N 11 13 6 7 1013.7 - 0.0
02/01:00am 25.4 27.1 20.9 76 3.0 N 13 15 7 8 1013.8 - 0.0
02/12:30am 25.8 26.9 21.2 76 3.0 N 17 19 9 10 1013.9 - 0.0
02/12:00am 26.0 27.0 21.0 74 3.3 NNE 17 20 9 11 1014.1 1014.1 0.0
 
Date/Time
CST
Temp
°C
App
Temp
°C
Dew
Point
Rel
Hum
%
Delta-T
°C
Wind Press
QNH
hPa
Press
MSL
hPa
Rain
since 9 am
mm
Dir
 
Spd
km/h
Gust
km/h
Spd
kts
Gust
kts
01/11:30pm 26.3 27.3 21.1 73 3.4 N 17 19 9 10 1014.2 - 0.0
01/11:00pm 26.2 27.0 20.7 71 3.6 N 17 19 9 10 1014.0 - 0.0
01/10:30pm 26.3 27.9 21.5 75 3.2 N 15 17 8 9 1013.8 - 0.0
01/10:00pm 26.1 27.9 21.1 74 3.3 N 13 15 7 8 1013.8 - 0.0
01/09:30pm 26.0 28.2 21.9 78 2.7 NNW 13 15 7 8 1013.8 - 0.0
01/09:00pm 25.9 28.1 21.8 78 2.7 N 13 15 7 8 1013.6 1013.6 0.0
01/08:30pm 25.7 27.6 21.4 77 2.8 N 13 15 7 8 1013.2 - 0.0
01/08:00pm 25.8 28.3 21.7 78 2.7 N 11 13 6 7 1012.9 - 0.0
01/07:30pm 25.8 28.4 21.2 76 3.0 N 9 13 5 7 1012.4 - 0.0
01/07:00pm 26.0 28.6 21.9 78 2.7 N 11 13 6 7 1011.9 - 0.0
01/06:30pm 25.9 28.3 21.6 77 2.9 N 11 15 6 8 1011.9 - 0.0
01/06:00pm 26.5 28.8 22.1 77 3.0 N 13 17 7 9 1011.8 1011.8 0.0
01/05:30pm 26.7 28.5 21.2 72 3.6 N 13 15 7 8 1011.7 - 0.0
01/05:00pm 27.2 29.8 21.2 69 4.0 N 9 11 5 6 1011.7 - 0.0
01/04:30pm 27.1 29.3 20.4 66 4.4 N 9 11 5 6 1011.7 - 0.0
01/04:00pm 28.2 30.9 20.7 63 5.0 NW 7 9 4 5 1011.8 - 0.0
01/03:30pm 28.7 31.5 21.5 65 4.8 WNW 9 11 5 6 1011.8 - 0.0
01/03:00pm 28.5 31.5 22.0 68 4.4 WNW 9 11 5 6 1012.0 1012.0 0.0
01/02:30pm 28.4 31.5 22.2 69 4.2 W 9 11 5 6 1012.2 - 0.0
01/02:00pm 28.1 31.2 22.1 70 4.0 WNW 9 11 5 6 1012.5 - 0.0
01/01:30pm 27.9 30.9 21.9 70 4.0 W 9 11 5 6 1013.1 - 0.0
01/01:00pm 27.8 30.9 22.1 71 3.8 WSW 9 11 5 6 1013.6 - 0.0
01/12:30pm 27.9 30.9 21.9 70 4.0 SW 9 13 5 7 1014.0 - 0.0
01/12:00pm 28.0 30.6 22.0 70 4.0 SW 11 15 6 8 1014.5 1014.5 0.0
01/11:30am 27.2 29.4 21.9 73 3.6 ESE 13 15 7 8 1014.7 - 0.0
01/11:00am 26.9 29.6 22.1 75 3.2 SE 11 15 6 8 1015.1 - 0.0
01/10:30am 27.5 30.6 22.9 76 3.1 ESE 11 13 6 7 1015.3 - 0.0
01/10:00am 27.0 30.0 22.0 74 3.4 E 9 13 5 7 1015.5 - 0.0
01/09:30am 26.5 29.3 21.5 74 3.3 E 9 13 5 7 1015.4 - 0.0
01/09:00am 26.7 29.7 21.9 75 3.2 E 9 13 5 7 1015.3 1015.3 0.0
01/08:30am 26.1 28.8 21.3 75 3.2 E 9 11 5 6 1015.1 - 0.0
01/08:00am 25.5 30.2 22.0 81 2.3 CALM 0 6 0 3 1014.8 - 0.0
01/07:30am 24.4 29.2 22.1 87 1.5 CALM 0 6 0 3 1014.4 - 0.0
01/07:00am 23.5 28.1 21.8 90 1.1 CALM 0 0 0 0 1014.2 - 0.0
01/06:30am 23.1 27.5 21.4 90 1.1 CALM 0 2 0 1 1013.8 - 0.0
01/06:00am 22.7 26.7 20.6 88 1.4 CALM 0 0 0 0 1013.7 1013.7 0.0
01/05:30am 23.7 28.3 21.8 89 1.3 CALM 0 0 0 0 1013.4 - 0.0
01/05:00am 23.9 28.3 21.4 86 1.6 CALM 0 0 0 0 1013.3 - 0.0
01/04:30am 24.7 29.0 21.2 81 2.3 CALM 0 0 0 0 1013.4 - 0.0
01/04:00am 24.9 29.3 21.4 81 2.3 CALM 0 0 0 0 1013.4 - 0.0
01/03:30am 25.0 28.7 21.5 81 2.3 N 4 9 2 5 1013.4 - 0.0
01/03:00am 25.2 27.3 21.7 81 2.3 NNE 13 15 7 8 1013.1 - 0.0
01/02:30am 25.3 27.3 22.2 83 2.1 NE 15 19 8 10 1013.3 - 0.0
01/02:00am 25.4 27.8 22.3 83 2.1 NE 13 17 7 9 1013.4 - 0.0
01/01:30am 25.4 27.8 22.3 83 2.1 NE 13 15 7 8 1013.5 - 0.0
01/01:00am 25.5 27.6 22.4 83 2.1 NE 15 19 8 10 1013.7 - 0.0
01/12:30am 25.7 27.9 22.6 83 2.1 NE 15 19 8 10 1014.0 - 0.0
01/12:00am 25.5 28.0 22.4 83 2.1 NE 13 15 7 8 1014.1 1014.1 0.0
 
Date/Time
CST
Temp
°C
App
Temp
°C
Dew
Point
Rel
Hum
%
Delta-T
°C
Wind Press
QNH
hPa
Press
MSL
hPa
Rain
since 9 am
mm
Dir
 
Spd
km/h
Gust
km/h
Spd
kts
Gust
kts
31/11:30pm 25.6 28.8 22.3 82 2.2 NE 9 13 5 7 1014.1 - 0.0
31/11:00pm 25.7 28.4 22.2 81 2.3 NE 11 13 6 7 1014.1 - 0.0
31/10:30pm 25.7 28.8 22.2 81 2.3 NE 9 11 5 6 1014.0 - 0.0

Other Formats:

Comma delimited format used in spreadsheet applications
http://www.bom.gov.au/fwo/IDD60801/IDD60801.94135.axf

JavaScript Object Notation format (JSON) in row-major order
http://www.bom.gov.au/fwo/IDD60801/IDD60801.94135.json